createdAt,value
2022-08-09T12:31:58.739Z,23.31
2022-08-09T12:37:53.855Z,23.40
2022-08-09T12:44:05.958Z,23.47
2022-08-09T12:50:19.558Z,23.55
2022-08-09T12:56:39.498Z,23.68
2022-08-09T13:02:54.163Z,23.77
2022-08-09T13:09:10.487Z,23.88
2022-08-09T13:15:16.170Z,24.12
2022-08-09T13:22:45.599Z,24.19
2022-08-09T13:27:54.717Z,24.29
2022-08-09T13:33:59.777Z,24.52
2022-08-09T13:41:52.561Z,24.45
2022-08-09T13:47:16.038Z,24.52
2022-08-09T13:52:54.372Z,24.74
2022-08-09T13:58:57.640Z,24.79
2022-08-09T14:05:02.622Z,24.87
2022-08-09T14:11:15.851Z,25.11
2022-08-09T14:17:22.739Z,25.47
2022-08-09T14:23:40.745Z,25.18
2022-08-09T14:30:34.905Z,25.18
2022-08-09T14:36:20.527Z,25.23
2022-08-09T14:42:30.503Z,25.57
2022-08-09T14:48:35.863Z,25.54
2022-08-09T14:54:39.925Z,25.41
2022-08-09T15:00:47.903Z,25.29
2022-08-09T15:06:52.528Z,25.25
2022-08-09T15:12:56.303Z,25.12
2022-08-09T15:19:05.693Z,25.04
2022-08-09T15:25:39.004Z,24.89
2022-08-09T15:31:43.354Z,24.94
2022-08-09T15:38:10.904Z,24.80
2022-08-09T15:44:14.250Z,24.79
2022-08-09T15:50:29.029Z,24.65
2022-08-09T15:56:34.134Z,24.63
2022-08-09T16:02:38.215Z,24.47
2022-08-09T16:08:44.587Z,24.43
2022-08-09T16:14:54.569Z,24.41
2022-08-09T16:21:00.362Z,24.33
2022-08-09T16:27:04.969Z,24.28
2022-08-09T16:33:10.236Z,24.28
2022-08-09T16:39:13.803Z,24.19
2022-08-09T16:45:19.761Z,24.25
2022-08-09T16:51:24.995Z,24.16
2022-08-09T16:58:07.988Z,24.12
2022-08-09T17:03:52.145Z,24.00
2022-08-09T17:10:01.848Z,24.07
2022-08-09T17:16:07.966Z,23.87
2022-08-09T17:22:11.599Z,23.97
2022-08-09T17:28:18.113Z,23.93
2022-08-09T17:35:00.803Z,23.78
2022-08-09T17:40:47.724Z,23.90
2022-08-09T17:46:55.785Z,23.70
2022-08-09T17:53:01.222Z,23.82
2022-08-09T17:59:09.334Z,23.84
2022-08-09T18:05:16.529Z,23.83
2022-08-09T18:11:20.831Z,23.61
2022-08-09T18:18:03.528Z,23.53
2022-08-09T18:24:12.823Z,23.62
2022-08-09T18:30:35.326Z,23.59
2022-08-09T18:36:49.475Z,23.48
2022-08-09T18:42:54.892Z,23.47
2022-08-09T18:48:58.454Z,23.50
2022-08-09T18:55:06.214Z,23.29
2022-08-09T19:01:18.840Z,23.09
2022-08-09T19:07:23.254Z,23.18
2022-08-09T19:13:38.398Z,22.98
2022-08-09T19:20:00.554Z,22.87
2022-08-09T19:26:06.232Z,22.84
2022-08-09T19:32:11.753Z,22.74
2022-08-09T19:38:17.665Z,22.59
2022-08-09T19:44:31.372Z,22.46
2022-08-09T19:50:49.375Z,22.45
2022-08-09T19:57:00.094Z,22.17
2022-08-09T20:04:10.570Z,22.12
2022-08-09T20:09:45.118Z,22.00
2022-08-09T20:16:35.866Z,21.91
2022-08-09T20:22:16.497Z,21.78
2022-08-09T20:28:34.359Z,21.75
2022-08-09T20:34:50.715Z,21.72
2022-08-09T20:40:56.071Z,21.57
2022-08-09T20:47:01.104Z,21.55
2022-08-09T20:53:21.071Z,21.56
2022-08-09T21:00:22.229Z,21.47
2022-08-09T21:05:59.479Z,21.38
2022-08-09T21:18:21.018Z,21.44
2022-08-09T21:24:33.564Z,21.33
2022-08-09T21:30:40.469Z,21.29
2022-08-09T21:36:55.417Z,21.27
2022-08-09T21:42:59.720Z,21.28
2022-08-09T21:49:07.480Z,21.25
2022-08-09T21:55:14.832Z,21.17
2022-08-09T22:01:26.076Z,21.24
2022-08-09T22:07:52.181Z,21.15
2022-08-09T22:13:56.973Z,21.08
2022-08-09T22:20:02.857Z,21.06
2022-08-09T22:26:12.830Z,21.04
2022-08-09T22:32:30.027Z,21.01
2022-08-09T22:38:35.132Z,21.01
2022-08-09T22:44:44.970Z,20.94
2022-08-09T22:50:52.815Z,20.95
2022-08-09T22:56:58.771Z,20.96
2022-08-09T23:03:03.816Z,20.92
2022-08-09T23:09:16.410Z,20.88
2022-08-09T23:15:19.942Z,20.86
2022-08-09T23:21:29.946Z,20.89
2022-08-09T23:27:36.837Z,21.01
2022-08-09T23:34:00.594Z,20.98
2022-08-09T23:40:08.766Z,20.83
2022-08-09T23:46:12.334Z,20.95
2022-08-09T23:52:16.164Z,20.69
2022-08-09T23:58:25.901Z,20.85
